Details From KSHN - SANDERSON FLD
To KHQM - BOWERMAN
Flight Number -
Tags generated
Created
Modified
Stats Distance 36 nm / 66 km
Max Altitude 4,200 ft / 1,280 m
Waypoints 3
Social Downloads 5
Likes 0
Share VATSIM

Download

Looking for another format? Having issues loading an existing format? Contact us
Advertisement - Login to hide

Notes

Basic altitude profile: - Ascent Rate: 2500ft/min - Ascent Speed: 250kts - Cruise Altitude: 35000ft - Cruise Speed: 420kts - Descent Rate: 1500ft/min - Descent Speed: 250kts Options: - Use NATs: yes - Use PACOTS: yes - Use low airways: yes - Use high airways: yes

Route

KSHN ELMAA KHQM

ID Type Via Altitude Latitude Longitude Leg Dist Tot Dist Heading (true) Name
O KSHN APT - 0 ft / 0 m 47.23356˚ -123.14754˚ - 0 nm - SANDERSON FLD
ELMAA FIX - 4,200 ft / 1,280 m 47.14804˚ -123.40955˚ 11 nm 11 nm 244° / 244° -
O KHQM APT - 0 ft / 0 m 46.97120˚ -123.93656˚ 24 nm 35 nm 244° / 244° BOWERMAN

Altitude Profile

Advertisement - Login to hide

KSHN

Details ICAO KSHN
Name SANDERSON FLD
Region United States
Timezone America/Los_Angeles (UTC-8.0)
Stats Elevation 273 ft / 83 m (AMSL)
Location 47.233559° -123.147544°
Runways 1
Magnetic Variation 15.779° E

METAR

KSHN 142253Z AUTO 12004KT 10SM CLR 09/04 A3025 RMK AO2 SLP249 T00890044

Decode

TAF

Not found

Departure Runways

ID Width Length Bearing (true) Bearing (mag) Surface Threshold Offset Overrun Length
05 100 ft / 30 m 4,994 ft / 1,522 m 67.84° 52.06° Asphalt 0 ft / 0 m 0 ft / 0 m
23 100 ft / 30 m 4,994 ft / 1,522 m 247.85° 232.07° Asphalt 0 ft / 0 m 0 ft / 0 m

KHQM

Details ICAO KHQM
Name BOWERMAN
Region United States
Timezone America/Los_Angeles (UTC-8.0)
Stats Elevation 18 ft / 5 m (AMSL)
Location 46.971196° -123.936564°
Runways 1
Magnetic Variation 15.840° E

METAR

KHQM 142253Z AUTO 06007KT 10SM CLR 11/03 A3024 RMK AO2 SLP244 T01060033

Decode

TAF

TAF KHQM 141721Z 1418/1518 05004KT P6SM BKN200 FM142200 08008KT P6SM OVC180 FM150800 08006KT P6SM OVC100 FM151000 08005KT P6SM OVC040 FM151200 08005KT 5SM -RA BR OVC025 FM151400 18005KT 5SM -RA BR OVC015 FM151600 27006KT P6SM -SHRA OVC015

Decode

Destination Runways

ID Width Length Bearing (true) Bearing (mag) Surface Threshold Offset Overrun Length
06 151 ft / 46 m 4,987 ft / 1,520 m 79.79° 63.95° Asphalt 0 ft / 0 m 0 ft / 0 m
24 151 ft / 46 m 4,987 ft / 1,520 m 259.81° 243.97° Asphalt 0 ft / 0 m 0 ft / 0 m

Approach Navaids

Runway Type Ident Frequency Range Bearing (true) Bearing (mag) Slope Elevation
24 Localiser IHQM 108.70 MHz 18 nm / 33 km 259.79° 243.95° - 18 ft / 5 m (AMSL)
24 Glidescope IHQM 108.70 MHz 10 nm / 19 km 259.80° 243.96° 3.00° 18 ft / 5 m (AMSL)
24 DME IHQM 108.70 MHz 18 nm / 33 km - - - 18 ft / 5 m (AMSL)